createdAt,value
2022-11-16T00:00:29.048Z,20.60
2022-11-16T00:03:31.347Z,20.50
2022-11-16T00:06:33.034Z,20.80
2022-11-16T00:09:35.351Z,20.90
2022-11-16T00:12:37.709Z,21.40
2022-11-16T00:15:39.315Z,21.40
2022-11-16T00:18:40.926Z,20.80
2022-11-16T00:21:42.659Z,21.10
2022-11-16T00:24:44.673Z,20.60
2022-11-16T00:27:46.131Z,21.00
2022-11-16T00:30:47.466Z,20.80
2022-11-16T00:33:49.708Z,21.30
2022-11-16T00:36:51.353Z,20.90
2022-11-16T00:39:54.019Z,20.70
2022-11-16T00:42:55.417Z,20.90
2022-11-16T00:45:56.920Z,21.00
2022-11-16T00:48:58.346Z,21.00
2022-11-16T00:51:59.713Z,20.90
2022-11-16T00:55:02.048Z,20.60
2022-11-16T00:58:04.020Z,20.80
2022-11-16T01:01:07.080Z,20.70
2022-11-16T01:04:08.680Z,20.70
2022-11-16T01:07:10.871Z,20.30
2022-11-16T01:10:16.305Z,20.50
2022-11-16T01:13:17.499Z,20.40
2022-11-16T01:16:21.479Z,20.80
2022-11-16T01:19:22.986Z,20.80
2022-11-16T01:22:24.297Z,20.70
2022-11-16T01:25:26.301Z,20.60
2022-11-16T01:28:28.710Z,20.90
2022-11-16T01:31:30.513Z,20.70
2022-11-16T01:34:32.731Z,20.70
2022-11-16T01:37:40.379Z,20.80
2022-11-16T01:40:42.754Z,20.50
2022-11-16T01:43:54.974Z,20.70
2022-11-16T01:46:59.522Z,20.20
2022-11-16T01:50:08.516Z,20.70
2022-11-16T01:53:13.019Z,20.70
2022-11-16T01:56:23.518Z,20.80
2022-11-16T01:59:35.710Z,20.80
2022-11-16T02:02:38.974Z,20.90
2022-11-16T02:05:49.998Z,20.70
2022-11-16T02:09:22.088Z,20.90
2022-11-16T02:12:51.305Z,20.80
2022-11-16T02:16:06.063Z,20.80
2022-11-16T02:19:28.986Z,20.70
2022-11-16T02:22:43.444Z,20.80
2022-11-16T02:25:56.239Z,20.40
2022-11-16T02:29:15.538Z,20.30
2022-11-16T02:32:23.334Z,20.60
2022-11-16T02:35:30.400Z,20.60
2022-11-16T02:38:37.619Z,20.60
2022-11-16T02:41:43.569Z,20.70
2022-11-16T02:44:50.934Z,20.50
2022-11-16T02:47:55.532Z,20.70
2022-11-16T02:50:57.425Z,20.80
2022-11-16T02:54:02.296Z,20.70
2022-11-16T02:57:25.606Z,20.40
2022-11-16T03:00:33.236Z,20.70
2022-11-16T03:03:42.293Z,20.40
2022-11-16T03:06:48.065Z,20.40
2022-11-16T03:09:51.474Z,20.70
2022-11-16T03:12:52.794Z,20.70
2022-11-16T03:15:56.382Z,20.80
2022-11-16T03:19:01.930Z,20.70
2022-11-16T03:22:10.198Z,20.80
2022-11-16T03:25:17.056Z,20.70
2022-11-16T03:28:24.689Z,20.90
2022-11-16T03:31:34.054Z,20.70
2022-11-16T03:34:38.376Z,20.40
2022-11-16T03:37:40.495Z,20.60
2022-11-16T03:40:45.937Z,21.00
2022-11-16T03:43:49.725Z,20.70
2022-11-16T03:46:53.362Z,20.90
2022-11-16T03:49:54.824Z,20.70
2022-11-16T03:52:58.369Z,20.50
2022-11-16T03:56:00.206Z,20.90
2022-11-16T03:59:03.447Z,20.60
2022-11-16T04:02:06.181Z,20.80
2022-11-16T04:05:23.548Z,20.80
2022-11-16T04:08:39.727Z,20.80
2022-11-16T04:11:54.598Z,20.70
2022-11-16T04:15:11.522Z,20.70
2022-11-16T04:18:24.663Z,21.00
2022-11-16T04:21:44.432Z,20.00
2022-11-16T04:24:51.403Z,21.00
2022-11-16T04:28:04.601Z,20.50
2022-11-16T04:31:21.298Z,20.90
2022-11-16T04:34:44.587Z,20.60
2022-11-16T04:37:49.053Z,20.70
2022-11-16T04:40:54.811Z,20.60
2022-11-16T04:43:58.370Z,20.70
2022-11-16T04:47:07.071Z,20.50
2022-11-16T04:50:10.853Z,20.70
2022-11-16T04:53:15.038Z,20.40
2022-11-16T04:56:24.235Z,20.60
2022-11-16T04:59:26.035Z,20.80
2022-11-16T05:02:28.022Z,20.70
2022-11-16T05:05:32.849Z,20.70
2022-11-16T05:08:35.432Z,20.40
2022-11-16T05:11:37.913Z,20.70
2022-11-16T05:14:40.318Z,20.70
2022-11-16T05:17:42.367Z,20.50
2022-11-16T05:21:04.484Z,21.00
2022-11-16T05:24:24.595Z,20.80
2022-11-16T05:27:27.881Z,20.40
2022-11-16T05:30:29.352Z,20.40
2022-11-16T05:33:33.267Z,20.80
2022-11-16T05:36:35.195Z,20.70
2022-11-16T05:39:37.432Z,20.80
2022-11-16T05:42:38.868Z,20.60
2022-11-16T05:45:40.208Z,20.80
2022-11-16T05:48:43.186Z,20.50
2022-11-16T05:51:45.921Z,20.60
2022-11-16T05:54:49.443Z,20.60
2022-11-16T05:57:51.322Z,20.70
2022-11-16T06:00:52.830Z,20.70
2022-11-16T06:03:54.868Z,20.80
2022-11-16T06:06:57.008Z,20.70
2022-11-16T06:10:04.336Z,20.70
2022-11-16T06:13:06.984Z,20.70
2022-11-16T06:16:08.552Z,20.80
2022-11-16T06:19:10.723Z,20.50
2022-11-16T06:22:13.372Z,21.00
2022-11-16T06:25:14.785Z,20.70
2022-11-16T06:28:18.656Z,20.60
2022-11-16T06:31:20.843Z,20.90
2022-11-16T06:34:22.153Z,20.70
2022-11-16T06:37:24.211Z,20.90
2022-11-16T06:40:26.109Z,20.70
2022-11-16T06:43:28.316Z,21.00
2022-11-16T06:46:31.504Z,20.90
2022-11-16T06:49:33.591Z,21.00
2022-11-16T06:52:39.420Z,20.70
2022-11-16T06:55:41.771Z,20.60
2022-11-16T06:58:43.247Z,20.90
2022-11-16T07:01:46.369Z,21.00
2022-11-16T07:04:49.301Z,20.90
2022-11-16T07:07:54.469Z,20.80
2022-11-16T07:10:59.036Z,20.70
2022-11-16T07:14:04.698Z,20.90
2022-11-16T07:17:09.543Z,20.70
2022-11-16T07:20:11.754Z,20.90
2022-11-16T07:23:14.499Z,20.90
2022-11-16T07:26:19.706Z,21.10
2022-11-16T07:29:27.790Z,20.80
2022-11-16T07:32:47.531Z,20.70
2022-11-16T07:36:01.471Z,20.90
2022-11-16T07:39:03.686Z,20.80
2022-11-16T07:42:10.621Z,21.10
2022-11-16T07:45:33.024Z,20.90
2022-11-16T07:48:41.847Z,21.20
2022-11-16T07:52:03.406Z,20.80
2022-11-16T07:55:20.278Z,21.00
2022-11-16T07:58:26.917Z,21.20
2022-11-16T08:01:32.355Z,21.10
2022-11-16T08:04:34.344Z,20.70
2022-11-16T08:07:36.051Z,21.00
2022-11-16T08:10:38.685Z,21.10
2022-11-16T08:13:41.274Z,20.80
2022-11-16T08:16:44.345Z,20.90
2022-11-16T08:19:48.763Z,21.10
2022-11-16T08:22:51.362Z,20.90
2022-11-16T08:25:57.867Z,21.10
2022-11-16T08:28:59.559Z,21.20
2022-11-16T08:32:07.279Z,21.00
2022-11-16T08:35:09.923Z,20.80
2022-11-16T08:38:11.898Z,21.20
2022-11-16T08:41:16.481Z,21.10
2022-11-16T08:44:18.075Z,21.30
2022-11-16T08:48:03.539Z,21.10
2022-11-16T08:51:19.326Z,20.90
2022-11-16T08:54:29.113Z,21.20
2022-11-16T08:57:31.889Z,21.00
2022-11-16T09:00:38.299Z,21.50
2022-11-16T09:03:40.159Z,21.20
2022-11-16T09:06:41.625Z,21.30
2022-11-16T09:09:43.005Z,21.10
2022-11-16T09:12:45.078Z,21.50
2022-11-16T09:15:46.732Z,21.50
2022-11-16T09:18:49.962Z,21.40
2022-11-16T09:21:51.629Z,21.90
2022-11-16T09:24:53.122Z,21.50
2022-11-16T09:27:55.269Z,21.50
2022-11-16T09:31:01.023Z,21.60
2022-11-16T09:34:03.359Z,21.40
2022-11-16T09:37:04.901Z,21.30
2022-11-16T09:40:07.713Z,21.80
2022-11-16T09:43:23.580Z,21.50
2022-11-16T09:46:31.062Z,21.50
2022-11-16T09:49:38.971Z,21.50
2022-11-16T09:52:45.841Z,21.60
2022-11-16T09:55:50.376Z,21.50
2022-11-16T09:58:58.165Z,21.30
2022-11-16T10:02:04.995Z,21.30
2022-11-16T10:05:15.772Z,21.50
2022-11-16T10:08:22.999Z,21.50
2022-11-16T10:11:49.461Z,21.70
2022-11-16T10:15:06.983Z,21.40
2022-11-16T10:18:31.955Z,21.30
2022-11-16T10:21:43.297Z,21.20
2022-11-16T10:24:55.865Z,21.40
2022-11-16T10:28:20.392Z,21.60
2022-11-16T10:31:30.510Z,21.20
2022-11-16T10:34:41.673Z,21.50
2022-11-16T10:37:46.480Z,21.20
2022-11-16T10:40:52.943Z,21.60
2022-11-16T10:43:57.255Z,21.30
2022-11-16T10:47:04.075Z,21.70
2022-11-16T10:50:30.980Z,21.70
2022-11-16T10:53:34.796Z,21.30
2022-11-16T10:56:39.726Z,21.20
2022-11-16T10:59:43.993Z,21.70
2022-11-16T11:02:48.726Z,21.50
2022-11-16T11:05:53.009Z,21.30
2022-11-16T11:08:54.598Z,21.40
2022-11-16T11:12:14.525Z,21.70
2022-11-16T11:15:25.796Z,21.30
2022-11-16T11:18:29.243Z,21.20
2022-11-16T11:21:30.882Z,21.80
2022-11-16T11:24:47.780Z,21.70
2022-11-16T11:27:50.397Z,21.60
2022-11-16T11:30:57.152Z,21.30
2022-11-16T11:34:14.336Z,21.60
2022-11-16T11:37:18.314Z,21.70
2022-11-16T11:40:23.354Z,21.60
2022-11-16T11:43:25.393Z,21.50
2022-11-16T11:46:47.544Z,21.60
2022-11-16T11:49:58.584Z,21.50
2022-11-16T11:53:07.458Z,21.50
2022-11-16T11:56:11.633Z,22.00
2022-11-16T11:59:18.641Z,21.30
2022-11-16T12:02:39.789Z,21.80
2022-11-16T12:06:00.397Z,21.70
2022-11-16T12:09:17.013Z,21.70
2022-11-16T12:12:34.004Z,21.70
2022-11-16T12:15:50.387Z,21.70
2022-11-16T12:19:08.097Z,21.50
2022-11-16T12:22:23.624Z,21.60
2022-11-16T12:25:33.341Z,21.70
2022-11-16T12:28:51.329Z,21.70
2022-11-16T12:32:13.785Z,21.70
2022-11-16T12:35:32.913Z,21.70
2022-11-16T12:38:53.035Z,21.60
2022-11-16T12:42:16.516Z,21.10
2022-11-16T12:45:37.483Z,21.70
2022-11-16T12:48:58.592Z,21.70
2022-11-16T12:52:14.764Z,21.90
2022-11-16T12:55:26.692Z,21.30
2022-11-16T12:58:46.425Z,21.40
2022-11-16T13:02:00.601Z,21.40
2022-11-16T13:05:11.624Z,21.30
2022-11-16T13:08:19.524Z,21.40
2022-11-16T13:11:26.914Z,21.80
2022-11-16T13:14:33.030Z,21.40
2022-11-16T13:17:38.221Z,21.70
2022-11-16T13:20:48.301Z,21.60
2022-11-16T13:24:00.447Z,21.30
2022-11-16T13:27:24.732Z,21.50
2022-11-16T13:30:33.151Z,21.80
2022-11-16T13:33:47.750Z,21.70
2022-11-16T13:36:52.259Z,21.80
2022-11-16T13:40:10.366Z,21.80
2022-11-16T13:43:18.575Z,21.40
2022-11-16T13:46:53.683Z,21.60
2022-11-16T13:49:49.390Z,21.30
2022-11-16T13:56:24.126Z,21.50
2022-11-16T13:59:31.696Z,21.70
2022-11-16T14:02:35.424Z,21.60
2022-11-16T14:05:40.937Z,21.70
2022-11-16T14:08:49.068Z,21.70
2022-11-16T14:11:50.611Z,21.40
2022-11-16T14:15:15.768Z,21.80
2022-11-16T14:18:36.317Z,21.80
2022-11-16T14:21:48.822Z,21.90
2022-11-16T14:24:56.275Z,21.90
2022-11-16T14:28:08.342Z,21.90
2022-11-16T14:31:20.430Z,21.90
2022-11-16T14:34:26.428Z,22.40
2022-11-16T14:37:31.837Z,21.60
2022-11-16T14:40:42.628Z,22.00
2022-11-16T14:43:49.251Z,21.90
2022-11-16T14:46:51.719Z,21.70
2022-11-16T14:49:54.511Z,21.70
2022-11-16T14:53:00.807Z,21.60
2022-11-16T14:56:07.825Z,21.80
2022-11-16T14:59:16.725Z,21.80
2022-11-16T15:02:22.670Z,22.10
2022-11-16T15:05:29.254Z,21.90
2022-11-16T15:08:34.638Z,22.10
2022-11-16T15:11:54.704Z,22.00
2022-11-16T15:14:57.984Z,22.10
2022-11-16T15:18:12.626Z,22.00
2022-11-16T15:21:21.076Z,22.00
2022-11-16T15:24:31.331Z,22.00
2022-11-16T15:27:36.571Z,21.50
2022-11-16T15:30:39.466Z,21.80
2022-11-16T15:33:43.308Z,21.80
2022-11-16T15:36:45.581Z,22.20
2022-11-16T15:39:47.066Z,22.10
2022-11-16T15:42:50.513Z,21.80
2022-11-16T15:45:53.380Z,22.40
2022-11-16T15:48:56.560Z,21.70
2022-11-16T15:51:58.921Z,22.00
2022-11-16T15:55:03.523Z,22.00
2022-11-16T15:58:13.226Z,22.00
2022-11-16T16:01:15.578Z,21.80
2022-11-16T16:04:18.547Z,21.80
2022-11-16T16:07:35.449Z,21.60
2022-11-16T16:10:37.008Z,21.90
2022-11-16T16:13:41.076Z,22.10
2022-11-16T16:16:42.607Z,21.70
2022-11-16T16:19:46.130Z,22.10
2022-11-16T16:22:47.611Z,22.00
2022-11-16T16:25:50.653Z,22.10
2022-11-16T16:28:52.428Z,22.40
2022-11-16T16:31:54.500Z,22.10
2022-11-16T16:34:58.594Z,21.70
2022-11-16T16:38:00.932Z,22.00
2022-11-16T16:41:04.203Z,22.00
2022-11-16T16:44:12.916Z,22.00
2022-11-16T16:47:15.973Z,21.70
2022-11-16T16:50:18.150Z,21.90
2022-11-16T16:53:19.685Z,21.80
2022-11-16T16:56:21.310Z,21.80
2022-11-16T16:59:23.060Z,22.00
2022-11-16T17:02:26.010Z,22.10
2022-11-16T17:05:29.418Z,22.20
2022-11-16T17:08:33.695Z,21.60
2022-11-16T17:11:35.119Z,22.20
2022-11-16T17:14:36.539Z,22.10
2022-11-16T17:17:40.507Z,22.30
2022-11-16T17:20:45.485Z,21.70
2022-11-16T17:23:47.466Z,21.60
2022-11-16T17:26:49.769Z,21.70
2022-11-16T17:29:51.345Z,21.90
2022-11-16T17:32:52.797Z,22.20
2022-11-16T17:35:55.806Z,21.60
2022-11-16T17:38:58.041Z,21.90
2022-11-16T17:41:59.485Z,22.10
2022-11-16T17:45:00.994Z,21.70
2022-11-16T17:48:02.481Z,22.10
2022-11-16T17:51:04.702Z,21.90
2022-11-16T17:54:06.115Z,21.70
2022-11-16T17:57:07.514Z,22.00
2022-11-16T18:00:09.908Z,22.20
2022-11-16T18:03:11.359Z,21.60
2022-11-16T18:06:14.490Z,22.10
2022-11-16T18:09:15.957Z,22.00
2022-11-16T18:12:17.253Z,22.10
2022-11-16T18:15:37.853Z,21.70
2022-11-16T18:18:40.205Z,22.00
2022-11-16T18:21:42.403Z,22.00
2022-11-16T18:24:43.968Z,21.90
2022-11-16T18:27:49.256Z,22.00
2022-11-16T18:30:50.892Z,22.40
2022-11-16T18:33:52.311Z,22.30
2022-11-16T18:36:55.375Z,21.50
2022-11-16T18:39:56.835Z,21.60
2022-11-16T18:42:58.102Z,21.90
2022-11-16T18:45:59.649Z,21.70
2022-11-16T18:49:01.121Z,21.80
2022-11-16T18:52:03.129Z,21.70
2022-11-16T18:55:05.691Z,22.00
2022-11-16T18:58:22.933Z,21.50
2022-11-16T19:01:28.919Z,21.50
2022-11-16T19:04:30.238Z,21.90
2022-11-16T19:07:32.784Z,22.00
2022-11-16T19:10:36.560Z,21.90
2022-11-16T19:13:38.670Z,21.40
2022-11-16T19:16:47.274Z,22.00
2022-11-16T19:19:51.538Z,21.70
2022-11-16T19:22:53.475Z,21.70
2022-11-16T19:25:59.675Z,21.90
2022-11-16T19:29:03.495Z,21.80
2022-11-16T19:32:05.062Z,21.80
2022-11-16T19:35:09.946Z,21.50
2022-11-16T19:38:12.014Z,21.60
2022-11-16T19:41:15.565Z,21.50
2022-11-16T19:44:16.987Z,22.00
2022-11-16T19:47:23.357Z,21.40
2022-11-16T19:50:45.060Z,21.80
2022-11-16T19:54:24.268Z,21.70
2022-11-16T19:58:09.826Z,21.60
2022-11-16T20:01:54.428Z,21.90
2022-11-16T20:05:29.464Z,21.20
2022-11-16T20:08:59.741Z,21.60
2022-11-16T20:12:32.320Z,21.80
2022-11-16T20:15:50.827Z,21.50
2022-11-16T20:18:55.223Z,21.40
2022-11-16T20:22:02.702Z,22.10
2022-11-16T20:25:16.083Z,21.30
2022-11-16T20:28:23.269Z,21.40
2022-11-16T20:31:31.097Z,21.60
2022-11-16T20:34:44.392Z,21.40
2022-11-16T20:38:00.677Z,21.20
2022-11-16T20:41:17.712Z,21.20
2022-11-16T20:44:25.595Z,21.30
2022-11-16T20:47:36.314Z,21.10
2022-11-16T20:50:45.855Z,21.40
2022-11-16T20:53:55.711Z,21.50
2022-11-16T20:57:04.889Z,21.60
2022-11-16T21:00:17.294Z,21.50
2022-11-16T21:03:28.143Z,21.50
2022-11-16T21:06:54.311Z,21.20
2022-11-16T21:10:14.373Z,20.90
2022-11-16T21:13:34.926Z,21.30
2022-11-16T21:16:55.658Z,21.40
2022-11-16T21:20:26.374Z,21.20
2022-11-16T21:23:38.337Z,21.60
2022-11-16T21:27:03.612Z,21.20
2022-11-16T21:30:09.546Z,21.60
2022-11-16T21:33:24.887Z,21.40
2022-11-16T21:36:32.594Z,21.20
2022-11-16T21:39:53.871Z,21.50
2022-11-16T21:43:05.439Z,21.20
2022-11-16T21:46:19.679Z,21.30
2022-11-16T21:50:16.947Z,21.60
2022-11-16T21:53:25.983Z,21.10
2022-11-16T21:56:38.142Z,21.30
2022-11-16T21:59:48.519Z,21.00
2022-11-16T22:03:00.213Z,21.30
2022-11-16T22:06:22.306Z,21.40
2022-11-16T22:09:29.988Z,21.40
2022-11-16T22:12:46.790Z,21.20
2022-11-16T22:15:52.857Z,21.10
2022-11-16T22:18:59.291Z,21.60
2022-11-16T22:22:06.967Z,21.50
2022-11-16T22:25:19.127Z,21.30
2022-11-16T22:28:29.843Z,21.50
2022-11-16T22:31:37.530Z,21.20
2022-11-16T22:34:44.425Z,21.10
2022-11-16T22:37:58.914Z,21.20
2022-11-16T22:41:19.390Z,21.00
2022-11-16T22:44:30.175Z,21.30
2022-11-16T22:47:36.315Z,21.30
2022-11-16T22:50:43.168Z,21.20
2022-11-16T22:54:07.986Z,21.30
2022-11-16T22:57:16.699Z,20.80
2022-11-16T23:00:25.148Z,21.30
2022-11-16T23:03:28.697Z,22.10
2022-11-16T23:06:45.417Z,20.70
2022-11-16T23:09:52.988Z,21.30
2022-11-16T23:13:12.589Z,21.10
2022-11-16T23:16:17.608Z,21.40
2022-11-16T23:19:34.939Z,21.20
2022-11-16T23:22:52.342Z,20.90
2022-11-16T23:26:12.365Z,20.80
2022-11-16T23:29:22.824Z,21.10
2022-11-16T23:32:31.243Z,21.10
2022-11-16T23:35:47.253Z,20.90
2022-11-16T23:38:53.014Z,20.80
2022-11-16T23:42:14.614Z,20.90
2022-11-16T23:45:23.530Z,21.20
2022-11-16T23:48:30.808Z,21.10
2022-11-16T23:51:37.357Z,21.10
2022-11-16T23:54:46.176Z,21.40
2022-11-16T23:57:53.368Z,21.40
